This is the latest recevied weather packets stored in our database for station/object CE4JVU-10. If no packets are shown the sender has not sent any weather packets the latest 10 day(s).
| Time | Temp. | Humidity | Pressure | Rain* | Wind** | Luminosity | Snow |
|---|---|---|---|---|---|---|---|
| 1787444491 | 19.44° C | 58% | 980.2 hPa | - | - | - | - |
| 1787443591 | 20° C | 58% | 980.3 hPa | - | - | - | - |
| 1787442691 | 21.11° C | 54% | 980.2 hPa | - | - | - | - |
| 1787441791 | 21.11° C | 54% | 980.1 hPa | - | - | - | - |
| 1787440891 | 21.11° C | 54% | 980.3 hPa | - | - | - | - |
| 1787439991 | 21.67° C | 52% | 980.1 hPa | - | - | - | - |
| 1787439091 | 20.56° C | 53% | 979.9 hPa | - | - | - | - |
| 1787438191 | 21.11° C | 52% | 979.7 hPa | - | - | - | - |
| 1787437291 | 20.56° C | 54% | 979.8 hPa | - | - | - | - |
| 1787436390 | 21.11° C | 50% | 979.4 hPa | - | - | - | - |
| 1787435490 | 20.56° C | 50% | 979.5 hPa | - | - | - | - |
| 1787434589 | 20° C | 51% | 979.4 hPa | - | - | - | - |
| 1787433689 | 20.56° C | 50% | 979.3 hPa | - | - | - | - |
| 1787432789 | 20.56° C | 48% | 979.2 hPa | - | - | - | - |
| 1787431889 | 20° C | 47% | 979.4 hPa | - | - | - | - |
| 1787430989 | 20° C | 50% | 979.2 hPa | - | - | - | - |
| 1787430089 | 18.89° C | 51% | 979 hPa | - | - | - | - |
| 1787429189 | 19.44° C | 51% | 979.2 hPa | - | - | - | - |
| 1787428289 | 18.89° C | 51% | 979.1 hPa | - | - | - | - |
| 1787427389 | 18.89° C | 47% | 979.3 hPa | - | - | - | - |
| 1787426489 | 18.89° C | 47% | 979.4 hPa | - | - | - | - |
| 1787425589 | 18.89° C | 48% | 979.3 hPa | - | - | - | - |
| 1787424689 | 18.33° C | 49% | 979.2 hPa | - | - | - | - |
| 1787423789 | 18.33° C | 50% | 979.6 hPa | - | - | - | - |
| 1787422889 | 18.89° C | 51% | 979.4 hPa | - | - | - | - |
* Rain since midnight (hover to see other rain measurements)
** Current wind speed in m/s (hover to see current wind gust speed)